createdAt,value
2017-06-05T20:46:42.757Z,21.98
2017-06-05T20:47:44.408Z,21.89
2017-06-05T20:48:46.098Z,21.83
2017-06-05T20:49:47.753Z,21.70
2017-06-05T20:50:49.417Z,21.69
2017-06-05T20:51:51.111Z,21.52
2017-06-05T20:52:52.828Z,21.75
2017-06-05T20:53:54.463Z,21.85
2017-06-05T20:54:56.124Z,21.85
2017-06-05T20:55:57.768Z,21.99
2017-06-05T20:56:59.491Z,22.11
2017-06-05T20:58:01.073Z,22.00
2017-06-05T20:59:02.740Z,22.08
2017-06-05T21:00:04.360Z,22.14
2017-06-05T21:01:05.985Z,22.10
2017-06-05T21:02:07.640Z,22.14
2017-06-05T21:03:09.332Z,22.04
2017-06-05T21:04:10.975Z,22.18
2017-06-05T21:05:12.657Z,22.18
2017-06-05T21:06:14.334Z,22.08
2017-06-05T21:07:16.019Z,22.10
2017-06-05T21:08:17.713Z,22.18
2017-06-05T21:09:19.415Z,22.11
2017-06-05T21:10:21.066Z,22.13
2017-06-05T21:11:22.802Z,21.93
2017-06-05T21:12:24.500Z,21.99
2017-06-05T21:13:26.155Z,21.95
2017-06-05T21:14:27.842Z,21.83
2017-06-05T21:15:29.496Z,21.85
2017-06-05T21:16:31.185Z,21.89
2017-06-05T21:17:32.910Z,21.87
2017-06-05T21:18:34.626Z,21.75
2017-06-05T21:19:36.342Z,21.64
2017-06-05T21:20:37.956Z,21.72
2017-06-05T21:21:39.602Z,21.67
2017-06-05T21:22:41.170Z,21.73
2017-06-05T21:23:43.401Z,21.61
2017-06-05T21:24:45.120Z,21.57
2017-06-05T21:25:46.762Z,21.60
2017-06-05T21:26:48.502Z,21.62
2017-06-05T21:27:50.137Z,21.67
2017-06-05T21:28:51.773Z,21.80
2017-06-05T21:29:53.421Z,21.80
2017-06-05T21:30:55.036Z,21.76
2017-06-05T21:31:56.730Z,21.52
2017-06-05T21:33:38.209Z,21.70
2017-06-05T21:34:39.817Z,21.58
2017-06-05T21:35:41.446Z,21.75
2017-06-05T21:36:43.109Z,21.72
2017-06-05T21:37:44.703Z,21.72
2017-06-05T21:38:46.380Z,21.70
2017-06-05T21:39:48.007Z,21.75
2017-06-05T21:40:49.608Z,21.73
2017-06-05T21:41:51.203Z,21.72
2017-06-05T21:42:52.802Z,21.79
2017-06-05T21:43:54.479Z,21.62
2017-06-05T21:44:56.108Z,21.72
2017-06-05T21:45:57.745Z,21.60
2017-06-05T21:46:59.364Z,21.54
2017-06-05T21:48:01.002Z,21.54
2017-06-05T21:49:02.660Z,21.60
2017-06-05T21:50:04.302Z,21.51
2017-06-05T21:51:05.958Z,21.58
2017-06-05T21:52:07.596Z,21.54
2017-06-05T21:53:09.198Z,21.52
2017-06-05T21:54:10.842Z,21.43
2017-06-05T21:55:12.444Z,21.48
2017-06-05T21:56:14.042Z,21.51
2017-06-05T21:57:15.710Z,21.40
2017-06-05T21:58:17.290Z,21.50
2017-06-05T21:59:18.943Z,21.45
2017-06-05T22:00:20.571Z,21.36
2017-06-05T22:01:22.204Z,21.36
2017-06-05T22:02:23.873Z,21.33
2017-06-05T22:03:25.484Z,21.21
2017-06-05T22:04:27.145Z,21.20
2017-06-05T22:05:28.774Z,21.30
2017-06-05T22:06:30.403Z,21.40
2017-06-05T22:07:32.185Z,21.37
2017-06-05T22:08:33.888Z,21.33
2017-06-05T22:09:36.527Z,21.46
2017-06-05T22:10:38.219Z,21.40
2017-06-05T22:11:39.886Z,21.46
2017-06-05T22:12:41.474Z,21.42
2017-06-05T22:13:43.213Z,21.39
2017-06-05T22:14:45.079Z,21.36
2017-06-05T22:15:48.006Z,21.40
2017-06-05T22:16:49.659Z,21.40
2017-06-05T22:17:51.275Z,21.25
2017-06-05T22:18:52.940Z,21.37
2017-06-05T22:19:54.600Z,21.30
2017-06-05T22:20:56.277Z,21.32
2017-06-05T22:21:57.918Z,21.17
2017-06-05T22:22:59.542Z,21.15
2017-06-05T22:24:40.650Z,20.99
2017-06-05T22:26:21.780Z,21.12
2017-06-05T22:27:23.392Z,21.07
2017-06-05T22:28:25.032Z,20.93
2017-06-05T22:29:26.743Z,20.85
2017-06-05T22:30:28.432Z,20.70
2017-06-05T22:31:30.128Z,20.67
2017-06-05T22:32:31.777Z,20.75
2017-06-05T22:33:33.482Z,20.72
2017-06-05T22:34:35.211Z,20.77
2017-06-05T22:35:36.881Z,20.84
2017-06-05T22:36:38.546Z,20.85
2017-06-05T22:37:40.251Z,20.67
2017-06-05T22:38:41.916Z,20.77
2017-06-05T22:39:43.624Z,20.37
2017-06-05T22:40:45.346Z,20.29
2017-06-05T22:41:46.999Z,20.56
2017-06-05T22:42:48.614Z,20.66
2017-06-05T22:43:50.208Z,20.55
2017-06-05T22:44:51.840Z,20.74
2017-06-05T22:45:53.535Z,20.47
2017-06-05T22:46:55.163Z,20.50
2017-06-05T22:47:56.798Z,20.39
2017-06-05T22:48:58.410Z,20.50
2017-06-05T22:50:00.019Z,20.28
2017-06-05T22:51:01.666Z,20.06
2017-06-05T22:52:03.281Z,19.99
2017-06-05T22:53:04.953Z,20.04
2017-06-05T22:54:06.679Z,19.96
2017-06-05T22:55:08.309Z,20.10
2017-06-05T22:56:09.956Z,20.07
2017-06-05T22:57:11.568Z,20.21
2017-06-05T22:58:13.215Z,20.00
2017-06-05T22:59:14.870Z,20.00
2017-06-05T23:00:16.511Z,20.02
2017-06-05T23:01:18.142Z,20.21
2017-06-05T23:02:19.756Z,20.13
2017-06-05T23:03:21.404Z,20.13
2017-06-05T23:04:23.075Z,20.21
2017-06-05T23:05:24.690Z,20.14
2017-06-05T23:06:26.335Z,19.96
2017-06-05T23:07:27.969Z,20.03
2017-06-05T23:08:29.613Z,20.03
2017-06-05T23:09:31.574Z,19.96
2017-06-05T23:10:33.243Z,19.99
2017-06-05T23:11:34.878Z,20.03
2017-06-05T23:12:36.511Z,20.00
2017-06-05T23:13:38.139Z,20.13
2017-06-05T23:14:39.850Z,20.18
2017-06-05T23:16:21.024Z,19.95
2017-06-05T23:18:02.703Z,19.88
2017-06-05T23:19:04.323Z,19.69
2017-06-05T23:20:05.987Z,19.69
2017-06-05T23:21:07.599Z,19.58
2017-06-05T23:22:09.188Z,19.55
2017-06-05T23:23:10.823Z,19.56
2017-06-05T23:24:12.463Z,19.56
2017-06-05T23:25:14.101Z,19.39
2017-06-05T23:26:15.697Z,19.39
2017-06-05T23:27:17.361Z,19.48
2017-06-05T23:28:18.959Z,19.41
2017-06-05T23:29:20.594Z,19.41
2017-06-05T23:30:22.177Z,19.39
2017-06-05T23:31:23.774Z,19.44
2017-06-05T23:32:25.427Z,19.41
2017-06-05T23:33:27.039Z,19.33
2017-06-05T23:34:28.681Z,19.48
2017-06-05T23:35:30.319Z,19.59
2017-06-05T23:36:31.885Z,19.62
2017-06-05T23:37:33.515Z,19.58
2017-06-05T23:38:35.127Z,19.66
2017-06-05T23:39:36.780Z,19.47
2017-06-05T23:40:38.391Z,19.41
2017-06-05T23:41:40.016Z,19.31
2017-06-05T23:42:41.626Z,19.33
2017-06-05T23:43:43.241Z,19.40
2017-06-05T23:44:44.918Z,19.26
2017-06-05T23:45:46.545Z,19.24
2017-06-05T23:46:48.143Z,19.09
2017-06-05T23:47:49.771Z,19.41
2017-06-05T23:48:52.227Z,19.29
2017-06-05T23:49:53.903Z,19.31
2017-06-05T23:50:55.495Z,19.39
2017-06-05T23:51:57.101Z,19.19
2017-06-05T23:52:58.744Z,19.11
2017-06-05T23:54:00.343Z,19.22
2017-06-05T23:55:02.031Z,19.21
2017-06-05T23:56:03.664Z,19.34
2017-06-05T23:57:05.301Z,19.29
2017-06-05T23:58:06.942Z,19.30
2017-06-05T23:59:08.584Z,19.33
